Time;durP1;ratioP1;P1;durP2;ratioP2;P2;SDS_P1;SDS_P2;PMS_P1;PMS_P2;Temp;Humidity;BMP_temperature;BMP_pressure;BME280_temperature;BME280_humidity;BME280_pressure;Samples;Min_cycle;Max_cycle;Signal;HPM_P1;HPM_P2
2022/04/19 00:01:48;;;;;;;6.90;2.35;;;;;;;;;;6267217;22;20019;-53
2022/04/19 00:04:16;;;;;;;9.18;2.22;;;;;;;;;;6266016;22;20004;-52
2022/04/19 00:06:42;;;;;;;5.68;2.17;;;;;;;;;;6266832;22;20027;-52
2022/04/19 00:09:07;;;;;;;4.65;2.28;;;;;;;;;;6266288;22;20012;-52
2022/04/19 00:11:32;;;;;;;4.07;2.05;;;;;;;;;;6265855;22;20489;-51
2022/04/19 00:13:58;;;;;;;5.03;2.10;;;;;;;;;;6265696;22;20018;-51
2022/04/19 00:16:23;;;;;;;9.43;2.72;;;;;;;;;;6266313;22;20044;-52
2022/04/19 00:18:48;;;;;;;4.80;2.45;;;;;;;;;;6266702;22;20015;-54
2022/04/19 00:21:14;;;;;;;5.22;2.30;;;;;;;;;;6266990;22;20023;-53
2022/04/19 00:23:39;;;;;;;7.78;4.60;;;;;;;;;;6266655;22;20003;-51
2022/04/19 00:26:04;;;;;;;7.97;2.72;;;;;;;;;;6266486;22;20107;-53
2022/04/19 00:28:30;;;;;;;10.30;2.53;;;;;;;;;;6264745;22;20008;-53
2022/04/19 00:30:55;;;;;;;6.32;2.47;;;;;;;;;;6267024;22;20038;-55
2022/04/19 00:33:20;;;;;;;6.43;2.45;;;;;;;;;;6263346;22;20031;-52
2022/04/19 00:35:45;;;;;;;12.43;2.83;;;;;;;;;;6266027;22;20015;-53
2022/04/19 00:38:11;;;;;;;3.92;2.50;;;;;;;;;;6266281;22;20026;-51
2022/04/19 00:40:36;;;;;;;7.15;2.30;;;;;;;;;;6265613;22;20022;-52
2022/04/19 00:43:03;;;;;;;8.00;2.40;;;;;;;;;;6265335;22;20026;-52
2022/04/19 00:45:31;;;;;;;5.75;3.40;;;;;;;;;;6266070;22;20043;-53
2022/04/19 00:47:56;;;;;;;10.55;2.85;;;;;;;;;;6265430;22;20052;-53
2022/04/19 00:50:24;;;;;;;14.95;2.65;;;;;;;;;;6265316;22;20004;-51
2022/04/19 00:52:50;;;;;;;8.57;3.65;;;;;;;;;;6266376;22;20012;-53
2022/04/19 00:55:15;;;;;;;6.05;3.35;;;;;;;;;;6265527;22;20058;-55
2022/04/19 00:57:41;;;;;;;6.10;2.92;;;;;;;;;;6266231;22;20771;-52
2022/04/19 01:00:08;;;;;;;11.32;2.72;;;;;;;;;;6266815;22;20038;-54
2022/04/19 01:02:35;;;;;;;9.40;2.90;;;;;;;;;;6265080;22;20007;-53
2022/04/19 01:05:00;;;;;;;5.72;2.25;;;;;;;;;;6266238;22;20023;-52
2022/04/19 01:07:25;;;;;;;12.93;2.95;;;;;;;;;;6264833;22;20350;-54
2022/04/19 01:09:51;;;;;;;10.27;4.00;;;;;;;;;;6263534;22;20020;-50
2022/04/19 01:15:05;;;;;;;7.53;2.78;;;;;;;;;;6266702;22;20071;-50
2022/04/19 01:17:31;;;;;;;7.25;2.75;;;;;;;;;;6263316;22;20614;-50
2022/04/19 01:19:56;;;;;;;5.93;2.90;;;;;;;;;;6266881;22;20012;-49
2022/04/19 01:22:22;;;;;;;9.23;3.08;;;;;;;;;;6265355;22;20035;-52
2022/04/19 01:24:47;;;;;;;8.95;2.85;;;;;;;;;;6264449;22;20008;-51
2022/04/19 01:27:13;;;;;;;8.50;2.95;;;;;;;;;;6264919;22;20507;-49
2022/04/19 01:29:39;;;;;;;5.05;2.58;;;;;;;;;;6266685;22;20087;-53
2022/04/19 01:32:04;;;;;;;5.78;2.90;;;;;;;;;;6265224;22;20069;-53
2022/04/19 01:34:30;;;;;;;4.97;2.60;;;;;;;;;;6266559;22;20011;-51
2022/04/19 01:36:55;;;;;;;5.88;3.33;;;;;;;;;;6266259;22;20023;-52
2022/04/19 01:40:16;;;;;;;16.67;4.25;;;;;;;;;;6263788;22;20023;-51
2022/04/19 01:42:06;;;;;;;5.05;3.33;;;;;;;;;;6266731;22;20016;-50
2022/04/19 01:44:33;;;;;;;5.32;2.53;;;;;;;;;;6265723;22;20054;-52
2022/04/19 01:46:59;;;;;;;7.22;3.00;;;;;;;;;;6259507;22;20011;-50
2022/04/19 01:49:24;;;;;;;4.47;2.53;;;;;;;;;;6267724;22;20050;-55
2022/04/19 01:51:50;;;;;;;11.40;3.05;;;;;;;;;;6265577;22;20011;-55
2022/04/19 01:54:15;;;;;;;10.18;3.25;;;;;;;;;;6268384;22;20589;-53
2022/04/19 01:56:40;;;;;;;12.05;4.05;;;;;;;;;;6267569;22;20051;-50
2022/04/19 01:59:06;;;;;;;7.97;3.53;;;;;;;;;;6268423;22;20003;-53
2022/04/19 02:01:31;;;;;;;6.63;2.63;;;;;;;;;;6264857;22;20030;-51
2022/04/19 02:03:57;;;;;;;8.45;3.22;;;;;;;;;;6265849;22;20008;-52
2022/04/19 02:06:22;;;;;;;5.68;3.33;;;;;;;;;;6265401;22;20008;-51
2022/04/19 02:08:47;;;;;;;11.32;3.10;;;;;;;;;;6268549;22;20023;-51
2022/04/19 02:11:12;;;;;;;10.25;3.15;;;;;;;;;;6265540;22;20015;-50
2022/04/19 02:13:38;;;;;;;9.32;3.45;;;;;;;;;;6268349;22;20011;-54
2022/04/19 02:16:03;;;;;;;5.65;3.78;;;;;;;;;;6265956;22;20008;-54
2022/04/19 02:18:28;;;;;;;9.63;3.13;;;;;;;;;;6267836;22;20073;-54
2022/04/19 02:20:54;;;;;;;13.32;3.15;;;;;;;;;;6265753;22;20015;-50
2022/04/19 02:23:19;;;;;;;9.43;4.32;;;;;;;;;;6266483;22;20023;-50
2022/04/19 02:25:46;;;;;;;10.55;3.38;;;;;;;;;;6268262;22;20034;-50
2022/04/19 02:28:12;;;;;;;8.43;3.80;;;;;;;;;;6268163;22;20697;-52
2022/04/19 02:30:37;;;;;;;7.20;3.17;;;;;;;;;;6267033;22;19996;-52
2022/04/19 02:33:02;;;;;;;9.25;4.45;;;;;;;;;;6267939;22;20548;-53
2022/04/19 02:35:28;;;;;;;7.97;3.55;;;;;;;;;;6266983;22;20385;-52
2022/04/19 02:37:54;;;;;;;6.30;3.65;;;;;;;;;;6268644;22;20011;-55
2022/04/19 02:40:20;;;;;;;9.55;3.13;;;;;;;;;;6266360;22;20011;-54
2022/04/19 02:42:47;;;;;;;10.15;4.07;;;;;;;;;;6266299;22;20024;-52
2022/04/19 02:45:12;;;;;;;5.43;3.38;;;;;;;;;;6266558;22;20023;-51
2022/04/19 02:47:37;;;;;;;6.80;3.38;;;;;;;;;;6268069;22;20375;-50
2022/04/19 02:50:03;;;;;;;7.80;3.08;;;;;;;;;;6265008;22;20016;-51
2022/04/19 02:52:28;;;;;;;14.23;3.83;;;;;;;;;;6264291;22;20496;-52
2022/04/19 02:54:53;;;;;;;7.63;3.10;;;;;;;;;;6266842;22;20008;-52
2022/04/19 02:57:19;;;;;;;6.47;2.95;;;;;;;;;;6267673;22;20019;-50
2022/04/19 02:59:45;;;;;;;11.30;3.60;;;;;;;;;;6264765;22;20062;-50
2022/04/19 03:02:11;;;;;;;4.88;3.05;;;;;;;;;;6267764;22;20004;-54
2022/04/19 03:04:37;;;;;;;10.30;3.28;;;;;;;;;;6267053;22;20062;-53
2022/04/19 03:07:03;;;;;;;7.18;3.30;;;;;;;;;;6268092;22;20567;-50
2022/04/19 03:09:28;;;;;;;10.02;3.28;;;;;;;;;;6266859;22;20008;-53
2022/04/19 03:11:53;;;;;;;5.63;2.90;;;;;;;;;;6267787;22;20071;-50
2022/04/19 03:14:19;;;;;;;8.00;3.50;;;;;;;;;;6264350;22;20011;-52
2022/04/19 03:16:44;;;;;;;7.90;3.20;;;;;;;;;;6267225;22;20031;-50
2022/04/19 03:19:13;;;;;;;8.15;3.80;;;;;;;;;;6267094;22;20057;-53
2022/04/19 03:21:39;;;;;;;7.65;3.78;;;;;;;;;;6267117;22;20059;-52
2022/04/19 03:29:42;;;;;;;9.50;3.63;;;;;;;;;;6267447;22;20011;-54
2022/04/19 03:32:09;;;;;;;8.00;3.33;;;;;;;;;;6266194;22;20007;-51
2022/04/19 03:34:35;;;;;;;9.82;4.00;;;;;;;;;;6267056;22;20011;-51
2022/04/19 03:37:00;;;;;;;10.43;4.05;;;;;;;;;;6267006;22;20080;-52
2022/04/19 03:39:25;;;;;;;6.57;3.28;;;;;;;;;;6266672;22;20004;-53
2022/04/19 03:41:51;;;;;;;7.22;3.60;;;;;;;;;;6265065;22;20072;-52
2022/04/19 03:44:16;;;;;;;14.20;3.70;;;;;;;;;;6266146;22;20016;-54
2022/04/19 03:49:26;;;;;;;11.93;3.88;;;;;;;;;;6265847;22;20015;-52
2022/04/19 03:51:52;;;;;;;6.20;3.80;;;;;;;;;;6267445;22;20055;-51
2022/04/19 03:54:17;;;;;;;13.93;3.72;;;;;;;;;;6265280;22;20167;-53
2022/04/19 03:56:42;;;;;;;9.00;4.22;;;;;;;;;;6268083;22;20103;-54
2022/04/19 03:59:09;;;;;;;13.23;4.38;;;;;;;;;;6266219;22;20065;-53
2022/04/19 04:01:36;;;;;;;6.72;3.80;;;;;;;;;;6267145;22;20024;-52
2022/04/19 04:04:01;;;;;;;9.35;3.65;;;;;;;;;;6266198;22;20020;-49
2022/04/19 04:06:27;;;;;;;11.18;3.55;;;;;;;;;;6267371;22;20057;-50
2022/04/19 04:08:52;;;;;;;11.82;4.50;;;;;;;;;;6266324;22;20015;-52
2022/04/19 04:11:18;;;;;;;11.02;4.57;;;;;;;;;;6265300;22;20011;-51
2022/04/19 04:13:43;;;;;;;14.20;4.45;;;;;;;;;;6265567;22;20000;-49
2022/04/19 04:16:09;;;;;;;10.75;4.60;;;;;;;;;;6265831;22;20067;-53
2022/04/19 04:18:34;;;;;;;7.18;4.10;;;;;;;;;;6266882;22;20019;-50
2022/04/19 04:20:59;;;;;;;9.25;4.28;;;;;;;;;;6265953;22;20049;-54
2022/04/19 04:23:26;;;;;;;9.25;4.40;;;;;;;;;;6265976;22;20011;-48
2022/04/19 04:25:51;;;;;;;9.38;4.55;;;;;;;;;;6266518;22;20296;-54
2022/04/19 04:28:17;;;;;;;12.85;4.97;;;;;;;;;;6265944;22;20499;-54
2022/04/19 04:30:42;;;;;;;7.43;4.60;;;;;;;;;;6266597;22;20015;-53
2022/04/19 04:33:07;;;;;;;10.88;4.20;;;;;;;;;;6266867;22;20036;-50
2022/04/19 04:35:32;;;;;;;8.55;3.95;;;;;;;;;;6265403;22;20007;-53
2022/04/19 04:37:58;;;;;;;8.70;3.80;;;;;;;;;;6266858;22;20030;-53
2022/04/19 04:40:23;;;;;;;10.70;3.92;;;;;;;;;;6264287;22;20004;-53
2022/04/19 04:42:48;;;;;;;13.35;3.65;;;;;;;;;;6264428;22;20038;-51
2022/04/19 04:45:14;;;;;;;5.18;3.38;;;;;;;;;;6265557;22;20012;-53
2022/04/19 04:50:23;;;;;;;9.70;5.65;;;;;;;;;;6265464;22;20058;-52
2022/04/19 04:52:49;;;;;;;9.63;4.15;;;;;;;;;;6266418;22;20608;-51
2022/04/19 04:55:15;;;;;;;8.05;3.88;;;;;;;;;;6264506;22;20008;-52
2022/04/19 04:57:40;;;;;;;8.82;3.88;;;;;;;;;;6265484;22;20505;-54
2022/04/19 05:00:06;;;;;;;7.90;3.30;;;;;;;;;;6266898;22;20035;-53
2022/04/19 05:02:31;;;;;;;5.63;3.42;;;;;;;;;;6263928;22;20526;-53
2022/04/19 05:04:56;;;;;;;10.57;3.97;;;;;;;;;;6266637;22;20015;-54
2022/04/19 05:07:22;;;;;;;8.23;4.13;;;;;;;;;;6263812;22;20915;-51
2022/04/19 05:09:47;;;;;;;8.75;3.70;;;;;;;;;;6267256;22;20435;-51
2022/04/19 05:12:12;;;;;;;11.00;4.15;;;;;;;;;;6263310;22;20011;-48
2022/04/19 05:14:37;;;;;;;6.47;3.40;;;;;;;;;;6267497;22;20012;-53
2022/04/19 05:17:03;;;;;;;11.18;3.00;;;;;;;;;;6265273;22;20700;-50
2022/04/19 05:19:28;;;;;;;7.63;3.95;;;;;;;;;;6266521;22;20012;-52
2022/04/19 05:21:53;;;;;;;8.27;3.38;;;;;;;;;;6265465;22;20052;-52
2022/04/19 05:24:19;;;;;;;8.13;3.97;;;;;;;;;;6266475;22;20068;-52
2022/04/19 05:26:44;;;;;;;8.55;4.13;;;;;;;;;;6265066;22;20011;-51
2022/04/19 05:29:09;;;;;;;8.27;4.43;;;;;;;;;;6266264;22;20012;-53
2022/04/19 05:31:35;;;;;;;6.97;3.35;;;;;;;;;;6263205;22;20026;-53
2022/04/19 05:34:00;;;;;;;7.28;3.38;;;;;;;;;;6265664;22;20016;-52
2022/04/19 05:36:26;;;;;;;9.43;3.20;;;;;;;;;;6262062;22;20425;-54
2022/04/19 05:38:54;;;;;;;9.15;3.13;;;;;;;;;;6264461;22;20023;-52
2022/04/19 05:41:20;;;;;;;5.80;3.55;;;;;;;;;;6261134;22;20034;-54
2022/04/19 05:43:47;;;;;;;5.85;2.83;;;;;;;;;;6264305;22;20016;-54
2022/04/19 05:46:12;;;;;;;6.07;3.65;;;;;;;;;;6262142;22;20012;-55
2022/04/19 05:48:37;;;;;;;11.18;4.40;;;;;;;;;;6264442;22;20018;-55
2022/04/19 05:51:03;;;;;;;10.43;3.65;;;;;;;;;;6263432;22;20415;-50
2022/04/19 05:53:28;;;;;;;6.18;3.58;;;;;;;;;;6263099;22;20019;-54
2022/04/19 05:55:54;;;;;;;10.85;4.10;;;;;;;;;;6262096;22;20016;-54
2022/04/19 05:58:19;;;;;;;5.88;3.42;;;;;;;;;;6262657;22;20015;-50
2022/04/19 06:00:44;;;;;;;6.65;3.22;;;;;;;;;;6260739;22;20036;-52
2022/04/19 06:05:54;;;;;;;7.68;3.03;;;;;;;;;;6261833;22;20042;-50
2022/04/19 06:08:19;;;;;;;6.57;3.38;;;;;;;;;;6263840;22;20114;-50
2022/04/19 06:10:45;;;;;;;5.53;3.00;;;;;;;;;;6261504;22;20314;-52
2022/04/19 06:13:10;;;;;;;5.78;3.15;;;;;;;;;;6264908;22;20019;-52
2022/04/19 06:15:37;;;;;;;10.07;3.45;;;;;;;;;;6262115;22;20037;-54
2022/04/19 06:18:02;;;;;;;3.53;2.50;;;;;;;;;;6264751;22;20027;-50
2022/04/19 06:20:28;;;;;;;6.18;3.00;;;;;;;;;;6262112;22;20011;-54
2022/04/19 06:22:53;;;;;;;9.82;2.95;;;;;;;;;;6263957;22;20048;-54
2022/04/19 06:25:19;;;;;;;6.30;3.03;;;;;;;;;;6262202;22;20012;-54
2022/04/19 06:27:44;;;;;;;7.35;2.90;;;;;;;;;;6264951;22;20015;-55
2022/04/19 06:30:10;;;;;;;4.75;3.00;;;;;;;;;;6261527;22;20012;-53
2022/04/19 06:32:36;;;;;;;11.68;2.75;;;;;;;;;;6264112;22;20020;-51
2022/04/19 06:35:01;;;;;;;6.82;2.53;;;;;;;;;;6262395;22;20016;-51
2022/04/19 06:37:26;;;;;;;6.20;2.50;;;;;;;;;;6264666;22;20143;-54
2022/04/19 06:39:52;;;;;;;9.43;2.85;;;;;;;;;;6262795;22;20027;-53
2022/04/19 06:42:17;;;;;;;3.30;2.20;;;;;;;;;;6262935;22;20023;-52
2022/04/19 06:44:43;;;;;;;7.97;2.78;;;;;;;;;;6263752;22;20902;-53
2022/04/19 06:47:08;;;;;;;16.73;3.03;;;;;;;;;;6265600;22;20015;-52
2022/04/19 06:49:33;;;;;;;5.13;2.10;;;;;;;;;;6264403;22;20107;-53
2022/04/19 06:51:59;;;;;;;8.15;2.78;;;;;;;;;;6265749;22;20023;-50
2022/04/19 06:54:24;;;;;;;10.93;4.97;;;;;;;;;;6264075;22;20624;-50
2022/04/19 06:56:50;;;;;;;6.25;2.55;;;;;;;;;;6266098;22;20062;-53
2022/04/19 06:59:15;;;;;;;9.90;3.35;;;;;;;;;;6261139;22;20063;-49
2022/04/19 07:01:42;;;;;;;8.45;3.20;;;;;;;;;;6260143;22;20024;-50
2022/04/19 07:04:08;;;;;;;8.15;3.33;;;;;;;;;;6258069;22;20598;-54
2022/04/19 07:06:33;;;;;;;6.18;2.60;;;;;;;;;;6265019;22;20015;-52
2022/04/19 07:08:59;;;;;;;4.85;1.95;;;;;;;;;;6265875;22;20069;-52
2022/04/19 07:11:25;;;;;;;4.10;1.95;;;;;;;;;;6264233;22;20015;-52
2022/04/19 07:13:50;;;;;;;3.75;1.85;;;;;;;;;;6264786;22;20064;-54
2022/04/19 07:16:15;;;;;;;2.67;1.85;;;;;;;;;;6261784;22;20130;-53
2022/04/19 07:18:41;;;;;;;6.38;1.92;;;;;;;;;;6263334;22;20031;-54
2022/04/19 07:26:45;;;;;;;5.18;2.00;;;;;;;;;;6266728;22;20134;-51
2022/04/19 07:29:11;;;;;;;3.92;1.75;;;;;;;;;;6267798;22;20016;-54
2022/04/19 07:31:40;;;;;;;3.55;1.88;;;;;;;;;;6265771;22;20031;-55
2022/04/19 07:34:05;;;;;;;2.75;1.92;;;;;;;;;;6264422;22;20016;-54
2022/04/19 07:36:31;;;;;;;10.57;2.47;;;;;;;;;;6265689;22;20031;-55
2022/04/19 07:38:57;;;;;;;6.90;2.20;;;;;;;;;;6260432;22;20008;-53
2022/04/19 07:41:23;;;;;;;3.92;1.73;;;;;;;;;;6262495;22;20506;-53
2022/04/19 07:43:48;;;;;;;8.85;2.47;;;;;;;;;;6263194;22;20489;-52
2022/04/19 07:46:17;;;;;;;7.38;1.90;;;;;;;;;;6263203;22;20046;-54
2022/04/19 07:48:43;;;;;;;3.78;1.90;;;;;;;;;;6263506;22;20055;-54
2022/04/19 07:51:08;;;;;;;6.43;2.20;;;;;;;;;;6262020;22;20089;-49
2022/04/19 07:53:33;;;;;;;4.22;1.30;;;;;;;;;;6262098;22;20023;-50
2022/04/19 07:55:58;;;;;;;7.80;2.25;;;;;;;;;;6261316;22;20008;-50
2022/04/19 07:58:24;;;;;;;6.07;2.08;;;;;;;;;;6260168;22;20023;-52
2022/04/19 08:00:50;;;;;;;6.85;1.85;;;;;;;;;;6259517;22;20018;-53
2022/04/19 08:03:15;;;;;;;5.13;1.60;;;;;;;;;;6261546;22;20026;-51
2022/04/19 08:05:41;;;;;;;5.20;1.50;;;;;;;;;;6256851;22;20020;-51
2022/04/19 08:08:06;;;;;;;2.72;2.00;;;;;;;;;;6263120;22;20015;-52
2022/04/19 08:10:31;;;;;;;6.85;2.08;;;;;;;;;;6261120;22;20016;-49
2022/04/19 08:12:56;;;;;;;5.97;2.33;;;;;;;;;;6267958;22;20008;-53
2022/04/19 08:15:22;;;;;;;9.30;2.17;;;;;;;;;;6263331;22;20047;-53
2022/04/19 08:17:48;;;;;;;4.25;2.33;;;;;;;;;;6264307;22;20090;-54
2022/04/19 08:20:13;;;;;;;6.00;2.15;;;;;;;;;;6265659;22;20028;-52
2022/04/19 08:22:39;;;;;;;8.38;2.92;;;;;;;;;;6264045;22;20175;-54
2022/04/19 08:25:06;;;;;;;6.03;2.30;;;;;;;;;;6266790;22;20020;-50
2022/04/19 08:27:31;;;;;;;9.48;2.55;;;;;;;;;;6265105;22;20087;-54
2022/04/19 08:29:56;;;;;;;6.28;2.22;;;;;;;;;;6265740;22;20018;-51
2022/04/19 08:32:22;;;;;;;4.95;2.55;;;;;;;;;;6265418;22;20745;-53
2022/04/19 08:34:47;;;;;;;9.23;2.40;;;;;;;;;;6264845;22;20012;-49
2022/04/19 08:37:12;;;;;;;4.60;2.30;;;;;;;;;;6256811;22;20030;-49
2022/04/19 08:39:37;;;;;;;5.43;2.92;;;;;;;;;;6260505;22;20348;-53
2022/04/19 08:42:06;;;;;;;6.05;2.25;;;;;;;;;;6263558;22;20023;-53
2022/04/19 08:44:38;;;;;;;7.78;2.65;;;;;;;;;;6263527;22;20018;-48
2022/04/19 08:47:09;;;;;;;3.70;1.83;;;;;;;;;;6266029;22;20012;-51
2022/04/19 08:49:39;;;;;;;8.73;2.10;;;;;;;;;;6265391;22;20480;-52
2022/04/19 08:52:04;;;;;;;19.42;3.17;;;;;;;;;;6263418;22;20387;-51
2022/04/19 08:57:29;;;;;;;5.15;2.45;;;;;;;;;;6266254;22;20077;-47
2022/04/19 08:59:54;;;;;;;7.05;2.15;;;;;;;;;;6266188;22;20450;-47
2022/04/19 09:02:21;;;;;;;4.53;2.55;;;;;;;;;;6263092;22;20019;-49
2022/04/19 09:04:46;;;;;;;5.45;3.38;;;;;;;;;;6266276;22;20012;-49
2022/04/19 09:07:11;;;;;;;5.43;2.38;;;;;;;;;;6263836;22;20065;-49
2022/04/19 09:09:38;;;;;;;7.07;2.70;;;;;;;;;;6264359;22;20061;-49
2022/04/19 09:12:12;;;;;;;5.47;2.67;;;;;;;;;;6265246;22;20022;-53
2022/04/19 09:14:56;;;;;;;5.32;2.58;;;;;;;;;;6265834;22;20446;-51
2022/04/19 09:17:28;;;;;;;4.72;3.22;;;;;;;;;;6263988;22;20019;-52
2022/04/19 09:20:07;;;;;;;5.90;2.55;;;;;;;;;;6266708;22;20007;-48
2022/04/19 09:22:32;;;;;;;8.13;2.93;;;;;;;;;;6265088;22;20023;-52
2022/04/19 09:25:12;;;;;;;8.35;3.83;;;;;;;;;;6265504;22;20071;-49
2022/04/19 09:27:37;;;;;;;10.77;3.10;;;;;;;;;;6266739;22;20012;-52
2022/04/19 09:30:15;;;;;;;6.18;3.40;;;;;;;;;;6265619;22;20072;-50
2022/04/19 09:32:41;;;;;;;4.40;2.85;;;;;;;;;;6264691;22;20030;-54
2022/04/19 09:35:06;;;;;;;5.60;2.90;;;;;;;;;;6266792;22;20012;-54
2022/04/19 09:37:32;;;;;;;9.77;3.25;;;;;;;;;;6264544;22;20012;-48
2022/04/19 09:39:57;;;;;;;7.70;3.70;;;;;;;;;;6265395;22;20054;-51
2022/04/19 09:42:25;;;;;;;9.52;3.90;;;;;;;;;;6263054;22;20097;-50
2022/04/19 09:44:51;;;;;;;12.10;4.00;;;;;;;;;;6266759;22;20015;-49
2022/04/19 09:47:17;;;;;;;7.60;3.72;;;;;;;;;;6265139;22;20008;-48
2022/04/19 09:49:42;;;;;;;11.25;4.22;;;;;;;;;;6265364;22;20070;-50
2022/04/19 09:52:07;;;;;;;10.05;4.18;;;;;;;;;;6264913;22;20022;-53
2022/04/19 09:54:32;;;;;;;4.88;3.33;;;;;;;;;;6264185;22;20012;-50
2022/04/19 09:57:06;;;;;;;8.05;4.10;;;;;;;;;;6266210;22;20028;-53
2022/04/19 09:59:32;;;;;;;8.52;3.05;;;;;;;;;;6263871;22;20019;-53
2022/04/19 10:10:10;;;;;;;7.78;4.28;;;;;;;;;;6267256;22;20014;-53
2022/04/19 10:12:36;;;;;;;7.95;3.40;;;;;;;;;;6266612;22;20552;-52
2022/04/19 10:15:03;;;;;;;7.75;3.17;;;;;;;;;;6268385;22;20075;-53
2022/04/19 10:17:29;;;;;;;9.18;2.83;;;;;;;;;;6264860;22;20088;-55
2022/04/19 10:19:55;;;;;;;7.63;3.00;;;;;;;;;;6267613;22;20015;-53
2022/04/19 10:22:20;;;;;;;4.28;3.00;;;;;;;;;;6265427;22;20024;-52
2022/04/19 10:24:52;;;;;;;12.60;3.45;;;;;;;;;;6267124;22;20011;-58
2022/04/19 10:27:17;;;;;;;4.78;2.47;;;;;;;;;;6265482;22;20034;-51
2022/04/19 10:29:43;;;;;;;9.68;2.92;;;;;;;;;;6266796;22;20011;-51
2022/04/19 10:32:09;;;;;;;4.85;2.45;;;;;;;;;;6266486;22;20004;-52
2022/04/19 10:34:35;;;;;;;6.50;3.13;;;;;;;;;;6266673;22;20015;-50
2022/04/19 10:37:16;;;;;;;7.65;3.15;;;;;;;;;;6267835;22;20042;-51
2022/04/19 10:39:44;;;;;;;6.90;3.33;;;;;;;;;;6259041;22;20143;-53
2022/04/19 10:42:26;;;;;;;6.15;2.80;;;;;;;;;;6248554;22;20789;-52
2022/04/19 10:44:52;;;;;;;9.50;2.90;;;;;;;;;;6257434;22;20034;-51
2022/04/19 10:47:18;;;;;;;9.82;3.08;;;;;;;;;;6264116;22;20014;-52
2022/04/19 10:49:47;;;;;;;4.68;2.42;;;;;;;;;;6266099;22;20012;-52
2022/04/19 10:52:44;;;;;;;6.93;2.80;;;;;;;;;;6257835;22;20012;-55
2022/04/19 10:55:18;;;;;;;12.27;2.97;;;;;;;;;;6247110;22;20008;-50
2022/04/19 11:00:34;;;;;;;5.57;2.83;;;;;;;;;;6266927;22;20045;-53
2022/04/19 11:03:03;;;;;;;4.13;2.70;;;;;;;;;;6267984;22;20046;-49
2022/04/19 11:05:55;;;;;;;8.75;3.22;;;;;;;;;;6264469;22;20493;-54
2022/04/19 11:08:26;;;;;;;4.45;2.75;;;;;;;;;;6260696;22;20012;-54
2022/04/19 11:10:52;;;;;;;5.18;3.15;;;;;;;;;;6267728;22;20505;-54
2022/04/19 11:13:19;;;;;;;12.32;3.03;;;;;;;;;;6263845;22;20019;-53
2022/04/19 11:15:55;;;;;;;4.13;3.05;;;;;;;;;;6267336;22;20011;-48
2022/04/19 11:18:22;;;;;;;8.60;3.83;;;;;;;;;;6265310;22;20011;-53
2022/04/19 11:20:47;;;;;;;12.38;4.10;;;;;;;;;;6268617;22;20633;-49
2022/04/19 11:23:20;;;;;;;17.63;4.75;;;;;;;;;;6266050;22;20015;-52
2022/04/19 11:25:46;;;;;;;10.00;4.25;;;;;;;;;;6267060;22;20541;-53
2022/04/19 11:28:11;;;;;;;6.55;3.65;;;;;;;;;;6266213;22;20007;-50
2022/04/19 11:30:41;;;;;;;8.27;4.32;;;;;;;;;;6266585;22;20287;-51
2022/04/19 11:33:08;;;;;;;7.43;4.63;;;;;;;;;;6264688;22;20564;-49
2022/04/19 11:35:33;;;;;;;14.55;4.38;;;;;;;;;;6267227;22;20050;-51
2022/04/19 11:38:05;;;;;;;10.77;4.63;;;;;;;;;;6265756;22;20599;-53
2022/04/19 11:48:47;;;;;;;11.15;4.53;;;;;;;;;;6267279;22;20441;-52
2022/04/19 11:51:13;;;;;;;4.28;2.60;;;;;;;;;;6264963;22;20397;-51
2022/04/19 11:53:38;;;;;;;11.05;3.70;;;;;;;;;;6266678;22;20735;-52
2022/04/19 11:56:04;;;;;;;8.52;3.47;;;;;;;;;;6264622;22;20019;-52
2022/04/19 11:58:31;;;;;;;13.52;4.47;;;;;;;;;;6266411;22;20020;-49
2022/04/19 12:00:58;;;;;;;9.55;3.70;;;;;;;;;;6266421;22;20102;-53
2022/04/19 12:03:32;;;;;;;12.18;3.67;;;;;;;;;;6266636;22;20099;-53
2022/04/19 12:06:08;;;;;;;4.38;3.13;;;;;;;;;;6267584;22;20071;-51
2022/04/19 12:08:33;;;;;;;13.30;4.40;;;;;;;;;;6261598;22;20016;-50
2022/04/19 12:11:03;;;;;;;7.03;3.70;;;;;;;;;;6261839;22;20135;-54
2022/04/19 12:13:28;;;;;;;9.23;4.00;;;;;;;;;;6265718;22;20038;-51
2022/04/19 12:15:53;;;;;;;6.65;3.65;;;;;;;;;;6264443;22;20038;-50
2022/04/19 12:18:35;;;;;;;6.80;3.65;;;;;;;;;;6265839;22;20012;-55
2022/04/19 12:21:01;;;;;;;7.82;4.13;;;;;;;;;;6259487;22;20031;-53
2022/04/19 12:23:26;;;;;;;5.95;3.58;;;;;;;;;;6262305;22;20441;-50
2022/04/19 12:25:57;;;;;;;5.93;4.70;;;;;;;;;;6261675;22;20020;-51
2022/04/19 12:28:23;;;;;;;12.35;3.88;;;;;;;;;;6259906;22;20098;-48
2022/04/19 12:30:48;;;;;;;11.73;3.58;;;;;;;;;;6263304;22;20015;-53
2022/04/19 12:33:14;;;;;;;7.50;3.78;;;;;;;;;;6260385;22;20432;-51
2022/04/19 12:35:40;;;;;;;10.75;3.88;;;;;;;;;;6263537;22;20020;-51
2022/04/19 12:38:10;;;;;;;7.95;3.13;;;;;;;;;;6262262;22;20026;-54
2022/04/19 12:40:36;;;;;;;11.30;3.67;;;;;;;;;;6261767;22;20022;-51
2022/04/19 12:43:01;;;;;;;12.73;4.15;;;;;;;;;;6261674;22;20027;-51
2022/04/19 12:45:30;;;;;;;4.90;3.75;;;;;;;;;;6260135;22;20333;-54
2022/04/19 12:47:58;;;;;;;7.63;3.63;;;;;;;;;;6261906;22;20046;-51
2022/04/19 12:50:24;;;;;;;8.95;3.83;;;;;;;;;;6261903;22;20254;-54
2022/04/19 12:52:49;;;;;;;7.22;3.78;;;;;;;;;;6260401;22;20189;-54
2022/04/19 12:55:15;;;;;;;4.63;2.85;;;;;;;;;;6262614;22;20008;-54
2022/04/19 12:57:45;;;;;;;5.53;3.03;;;;;;;;;;6259998;22;20014;-53
2022/04/19 13:00:11;;;;;;;4.90;3.00;;;;;;;;;;6262164;22;20007;-52
2022/04/19 13:02:36;;;;;;;4.63;2.95;;;;;;;;;;6261871;22;20659;-52
2022/04/19 13:05:02;;;;;;;5.15;2.92;;;;;;;;;;6260565;22;20016;-54
2022/04/19 13:12:59;;;;;;;4.78;2.47;;;;;;;;;;6264827;22;20117;-52
2022/04/19 13:15:24;;;;;;;9.95;3.65;;;;;;;;;;6261035;22;20432;-50
2022/04/19 13:17:50;;;;;;;6.25;3.03;;;;;;;;;;6255263;22;20034;-50
2022/04/19 13:20:15;;;;;;;6.72;3.10;;;;;;;;;;6261801;22;20077;-52
2022/04/19 13:22:40;;;;;;;11.20;2.97;;;;;;;;;;6262290;22;20499;-50
2022/04/19 13:25:07;;;;;;;8.63;3.17;;;;;;;;;;6266868;22;20272;-50
2022/04/19 13:27:35;;;;;;;4.13;2.83;;;;;;;;;;6266258;22;20011;-49
2022/04/19 13:30:01;;;;;;;7.68;3.58;;;;;;;;;;6265160;22;20023;-52
2022/04/19 13:32:27;;;;;;;9.95;3.72;;;;;;;;;;6265912;22;20081;-51
2022/04/19 13:34:52;;;;;;;8.38;2.60;;;;;;;;;;6265836;22;20012;-51
2022/04/19 13:38:23;;;;;;;7.05;3.30;;;;;;;;;;6267077;22;20011;-49
2022/04/19 13:40:03;;;;;;;7.55;3.05;;;;;;;;;;6268453;22;20011;-47
2022/04/19 13:42:28;;;;;;;5.20;2.53;;;;;;;;;;6266273;22;20533;-47
2022/04/19 13:44:53;;;;;;;6.63;2.75;;;;;;;;;;6268672;22;20020;-52
2022/04/19 13:47:18;;;;;;;3.55;2.53;;;;;;;;;;6263813;22;20350;-52
2022/04/19 13:49:44;;;;;;;6.13;2.83;;;;;;;;;;6265350;22;20015;-51
2022/04/19 13:52:09;;;;;;;5.32;2.47;;;;;;;;;;6267367;22;20011;-52
2022/04/19 13:54:34;;;;;;;5.30;2.45;;;;;;;;;;6265385;22;20490;-49
2022/04/19 13:57:02;;;;;;;5.47;2.97;;;;;;;;;;6266693;22;20358;-54
2022/04/19 13:59:27;;;;;;;5.75;2.42;;;;;;;;;;6265632;22;20016;-52
2022/04/19 14:01:52;;;;;;;3.28;2.08;;;;;;;;;;6265648;22;20035;-52
2022/04/19 14:04:18;;;;;;;10.77;2.95;;;;;;;;;;6267193;22;20022;-53
2022/04/19 14:06:43;;;;;;;7.35;3.13;;;;;;;;;;6265326;22;20023;-51
2022/04/19 14:09:09;;;;;;;5.28;2.60;;;;;;;;;;6268233;22;20022;-52
2022/04/19 14:11:35;;;;;;;6.22;2.83;;;;;;;;;;6264994;22;20240;-50
2022/04/19 14:14:00;;;;;;;11.23;2.80;;;;;;;;;;6268791;22;20441;-52
2022/04/19 14:16:25;;;;;;;8.82;3.22;;;;;;;;;;6263883;22;20019;-51
2022/04/19 14:18:51;;;;;;;7.22;3.60;;;;;;;;;;6268291;22;20015;-50
2022/04/19 14:21:16;;;;;;;12.50;3.33;;;;;;;;;;6265462;22;20019;-52
2022/04/19 14:23:42;;;;;;;8.82;3.05;;;;;;;;;;6268035;22;20004;-50
2022/04/19 14:26:07;;;;;;;5.57;2.78;;;;;;;;;;6265833;22;20182;-49
2022/04/19 14:33:59;;;;;;;7.20;3.67;;;;;;;;;;6266477;22;20022;-50
2022/04/19 14:36:25;;;;;;;6.38;3.22;;;;;;;;;;6267733;22;20035;-52
2022/04/19 14:38:50;;;;;;;7.93;2.35;;;;;;;;;;6266567;22;20015;-51
2022/04/19 14:41:18;;;;;;;5.75;3.17;;;;;;;;;;6267548;22;20458;-53
2022/04/19 14:43:43;;;;;;;7.10;2.65;;;;;;;;;;6267284;22;20466;-51
2022/04/19 14:46:09;;;;;;;3.75;2.78;;;;;;;;;;6267982;22;20008;-54
2022/04/19 14:48:35;;;;;;;6.22;2.63;;;;;;;;;;6265486;22;20022;-53
2022/04/19 14:53:44;;;;;;;5.22;2.08;;;;;;;;;;6264617;22;20441;-51
2022/04/19 14:56:09;;;;;;;7.28;2.40;;;;;;;;;;6260358;22;20011;-50
2022/04/19 14:58:34;;;;;;;3.00;2.20;;;;;;;;;;6259565;22;20019;-52
2022/04/19 15:01:00;;;;;;;5.70;2.28;;;;;;;;;;6259864;22;20016;-52
2022/04/19 15:03:25;;;;;;;9.23;2.10;;;;;;;;;;6255720;22;20023;-49
2022/04/19 15:05:50;;;;;;;5.45;2.25;;;;;;;;;;6258780;22;20559;-50
2022/04/19 15:08:16;;;;;;;4.20;2.50;;;;;;;;;;6255269;22;20008;-50
2022/04/19 15:10:41;;;;;;;8.57;2.30;;;;;;;;;;6264387;22;20236;-48
2022/04/19 15:13:07;;;;;;;10.95;2.45;;;;;;;;;;6264861;22;20024;-50
2022/04/19 15:15:33;;;;;;;6.30;1.92;;;;;;;;;;6264693;22;20019;-50
2022/04/19 15:17:58;;;;;;;5.90;2.17;;;;;;;;;;6267949;22;20060;-53
2022/04/19 15:20:23;;;;;;;5.75;2.45;;;;;;;;;;6264835;22;20027;-52
2022/04/19 15:22:49;;;;;;;4.80;2.72;;;;;;;;;;6268447;22;20024;-48
2022/04/19 15:25:15;;;;;;;4.25;2.33;;;;;;;;;;6266283;22;20019;-50
2022/04/19 15:27:40;;;;;;;6.78;3.72;;;;;;;;;;6267359;22;20064;-48
2022/04/19 15:30:06;;;;;;;6.03;2.20;;;;;;;;;;6266084;22;20314;-50
2022/04/19 15:32:31;;;;;;;3.45;1.90;;;;;;;;;;6267168;22;20069;-48
2022/04/19 15:34:56;;;;;;;3.45;2.35;;;;;;;;;;6265455;22;20137;-50